Kalmar Nyckel — WCY3589 — position and weather

sailwx.info

Track history (hours):
 
Tides and Currents Weather Stations Pressure Air Temp Water Temp Dewpoint Dewpoint Depression Visibility Wind Speed Wind Dir Waves Ship Positions

Kalmar Nyckel (United States)

Ship's website: http://www.kalmarnyckel.org/

Owner: KALMAR NYCKEL FOUNDATION, WILMINGTON, DE. More information available from US FCC via Universal Licensing System.

Last reported at 2018-Jun-22 01:17 UTC. Time now 2018-Jun-22 01:30 UTC.
Position N 39°44' W 075°34'.

Length 46 m; draft 3.1 m.

Type: Ship. MMSI: 367004000.

Date/timePositionNaut miles runAvg speedWind from/ knotsBaromVisibWave heightAir tempDewpointWater temp
2018-Jun-22 01:17N 39°44' W 075°34'0 0.0
2018-Jun-22 00:59N 39°44' W 075°34'0 0.0
2018-Jun-22 00:29N 39°44' W 075°34'0 0.0
2018-Jun-21 23:59N 39°44' W 075°34'0 0.0
2018-Jun-21 23:26N 39°44' W 075°34'0 0.0
2018-Jun-21 22:56N 39°44' W 075°34'0 0.0
2018-Jun-21 22:29N 39°44' W 075°34'0 0.0
2018-Jun-21 21:56N 39°44' W 075°34'0 0.0
2018-Jun-21 21:29N 39°44' W 075°34'0 0.0
2018-Jun-21 20:59N 39°44' W 075°34'0 0.0
2018-Jun-21 20:26N 39°44' W 075°34'0 0.0
2018-Jun-21 19:59N 39°44' W 075°34'0 0.0
2018-Jun-21 19:26N 39°44' W 075°34'0 0.0
2018-Jun-21 18:59N 39°44' W 075°34'0 0.0
2018-Jun-21 18:26N 39°44' W 075°34'0 0.0
2018-Jun-21 18:00N 39°44' W 075°34'0 0.1
2018-Jun-21 17:30N 39°44' W 075°34'1 2.5
2018-Jun-21 17:00N 39°44' W 075°32'2 4.3
2018-Jun-21 16:30N 39°42' W 075°31'3 6.3
2018-Jun-21 16:00N 39°39' W 075°33'3 5.3
2018-Jun-21 15:30N 39°37' W 075°35'3 6.4
2018-Jun-21 15:00N 39°34' W 075°33'4 8.0
2018-Jun-21 14:30N 39°33' W 075°38'4 7.7
2018-Jun-21 14:00N 39°33' W 075°43'4 7.3
2018-Jun-21 13:30N 39°32' W 075°48'1 1.6
2018-Jun-21 12:58N 39°32' W 075°49'0 0.0
2018-Jun-21 12:30N 39°32' W 075°49'0 0.0
2018-Jun-21 12:00N 39°32' W 075°49'0 0.0
2018-Jun-21 11:30N 39°32' W 075°49'0 0.0
2018-Jun-21 11:00N 39°32' W 075°49'0 0.0
2018-Jun-21 10:30N 39°32' W 075°49'0 0.0
2018-Jun-21 10:01N 39°32' W 075°49'0 0.0
2018-Jun-21 09:30N 39°32' W 075°49'0 0.0
2018-Jun-21 09:00N 39°32' W 075°49'0 0.0
2018-Jun-21 08:30N 39°32' W 075°49'0 0.0
2018-Jun-21 08:00N 39°32' W 075°49'0 0.0
2018-Jun-21 07:30N 39°32' W 075°49'0 0.0
2018-Jun-21 07:00N 39°32' W 075°49'0 0.0
2018-Jun-21 06:30N 39°32' W 075°49'0 0.0
2018-Jun-21 06:00N 39°32' W 075°49'0 0.0
2018-Jun-21 05:30N 39°32' W 075°49'0 0.0
2018-Jun-21 05:00N 39°32' W 075°49'0 0.0
2018-Jun-21 04:30N 39°32' W 075°49'0 0.0
2018-Jun-21 04:00N 39°32' W 075°49'0 0.0
2018-Jun-21 03:30N 39°32' W 075°49'0 0.0
2018-Jun-21 03:00N 39°32' W 075°49'0 0.0
2018-Jun-21 02:16N 39°32' W 075°49'0 0.0
2018-Jun-21 02:00N 39°32' W 075°49'0 0.0
2018-Jun-21 01:18N 39°32' W 075°49'0 0.0
2018-Jun-21 01:00N 39°32' W 075°49'0 0.0
2018-Jun-21 00:30N 39°32' W 075°49'0 0.0
2018-Jun-21 00:00N 39°32' W 075°49'0 0.0
2018-Jun-20 23:30N 39°32' W 075°49'0 0.0
2018-Jun-20 23:00N 39°32' W 075°49'0 0.0
2018-Jun-20 22:30N 39°32' W 075°49'0 0.0
2018-Jun-20 22:00N 39°32' W 075°49'0 0.0
2018-Jun-20 21:30N 39°32' W 075°49'0 0.0
2018-Jun-20 21:00N 39°32' W 075°49'0 0.0
2018-Jun-20 20:30N 39°32' W 075°49'0 0.0
2018-Jun-20 20:00N 39°32' W 075°49'0 0.0
2018-Jun-20 19:30N 39°32' W 075°49'0 0.0
2018-Jun-20 19:00N 39°32' W 075°49'0 0.0
2018-Jun-20 18:30N 39°32' W 075°49'0 0.0
2018-Jun-20 18:01N 39°32' W 075°49'0 0.0
2018-Jun-20 17:30N 39°32' W 075°49'0 0.0
2018-Jun-20 17:00N 39°32' W 075°49'0 0.0
2018-Jun-20 16:30N 39°32' W 075°49'0 0.0
2018-Jun-20 16:00N 39°32' W 075°49'0 0.0
2018-Jun-20 15:30N 39°32' W 075°49'0 0.0
2018-Jun-20 15:00N 39°32' W 075°49'0 0.0
2018-Jun-20 14:30N 39°32' W 075°49'0 0.0
2018-Jun-20 14:00N 39°32' W 075°49'0 0.0
2018-Jun-20 13:30N 39°32' W 075°49'0 0.0
2018-Jun-20 13:00N 39°32' W 075°49'0 0.0
2018-Jun-20 12:28N 39°32' W 075°49'0 0.0
2018-Jun-20 11:59N 39°32' W 075°49'0 0.0
2018-Jun-20 11:30N 39°32' W 075°49'0 0.0
2018-Jun-20 11:00N 39°32' W 075°49'0 0.0
2018-Jun-20 10:31N 39°32' W 075°49'0 0.0
2018-Jun-20 10:00N 39°32' W 075°49'0 0.0
2018-Jun-20 09:30N 39°32' W 075°49'0 0.0
2018-Jun-20 09:00N 39°32' W 075°49'0 0.0
2018-Jun-20 08:30N 39°32' W 075°49'0 0.0
2018-Jun-20 08:00N 39°32' W 075°49'0 0.0
2018-Jun-20 07:30N 39°32' W 075°49'0 0.0
2018-Jun-20 07:00N 39°32' W 075°49'0 0.0
2018-Jun-20 06:29N 39°32' W 075°49'0 0.0
2018-Jun-20 06:00N 39°32' W 075°49'0 0.0
2018-Jun-20 05:30N 39°32' W 075°49'0 0.0
2018-Jun-20 05:00N 39°32' W 075°49'0 0.0
2018-Jun-20 04:30N 39°32' W 075°49'0 0.0
2018-Jun-20 04:00N 39°32' W 075°49'0 0.0
2018-Jun-20 03:29N 39°32' W 075°49'0 0.0
2018-Jun-20 03:00N 39°32' W 075°49'0 0.0
2018-Jun-20 02:30N 39°32' W 075°49'0 0.0
2018-Jun-20 01:58N 39°32' W 075°49'0 0.0
2018-Jun-20 01:30N 39°32' W 075°49'0 0.0
2018-Jun-20 00:57N 39°32' W 075°49'0 0.0
2018-Jun-20 00:08N 39°32' W 075°49'0 0.0
2018-Jun-19 23:47N 39°32' W 075°49'0 0.0
2018-Jun-19 23:28N 39°32' W 075°49'0 0.0
2018-Jun-19 23:00N 39°32' W 075°49'0 0.0
2018-Jun-19 22:30N 39°32' W 075°49'0 0.0
2018-Jun-19 22:00N 39°32' W 075°49'0 0.0
2018-Jun-19 21:30N 39°32' W 075°49'0 0.0
2018-Jun-19 21:00N 39°32' W 075°49'0 0.0
2018-Jun-19 20:30N 39°32' W 075°49'0 0.0
2018-Jun-19 20:00N 39°32' W 075°49'0 0.0
2018-Jun-19 19:30N 39°32' W 075°49'0 0.0
2018-Jun-19 19:00N 39°32' W 075°49'  
2018-Jun-13 14:50N 38°01' W 076°21'3 7.7
2018-Jun-13 14:26N 38°03' W 076°24'3 7.2
2018-Jun-13 14:00N 38°06' W 076°26'1 0.1
2018-Jun-12 22:12N 38°07' W 076°27'2 8.2
2018-Jun-12 21:54N 38°05' W 076°25'3 8.0
2018-Jun-12 21:30N 38°02' W 076°22'  
Track history (hours):
 
Tides and Currents Weather Stations Pressure Air Temp Water Temp Dewpoint Dewpoint Depression Visibility Wind Speed Wind Dir Waves Ship Positions

Kalmar Nyckel (United States)

Ship's website: http://www.kalmarnyckel.org/

Owner: KALMAR NYCKEL FOUNDATION, WILMINGTON, DE. More information available from US FCC via Universal Licensing System.

Last reported at 2018-Jun-22 01:17 UTC. Time now 2018-Jun-22 01:30 UTC.
Position N 39°44' W 075°34'.

Length 46 m; draft 3.1 m.

Type: Ship. MMSI: 367004000.

Date/timePositionNaut miles runAvg speedWind from/ knotsBaromVisibWave heightAir tempDewpointWater temp
2018-Jun-22 01:17N 39°44' W 075°34'0 0.0
2018-Jun-22 00:59N 39°44' W 075°34'0 0.0
2018-Jun-22 00:29N 39°44' W 075°34'0 0.0
2018-Jun-21 23:59N 39°44' W 075°34'0 0.0
2018-Jun-21 23:26N 39°44' W 075°34'0 0.0
2018-Jun-21 22:56N 39°44' W 075°34'0 0.0
2018-Jun-21 22:29N 39°44' W 075°34'0 0.0
2018-Jun-21 21:56N 39°44' W 075°34'0 0.0
2018-Jun-21 21:29N 39°44' W 075°34'0 0.0
2018-Jun-21 20:59N 39°44' W 075°34'0 0.0
2018-Jun-21 20:26N 39°44' W 075°34'0 0.0
2018-Jun-21 19:59N 39°44' W 075°34'0 0.0
2018-Jun-21 19:26N 39°44' W 075°34'0 0.0
2018-Jun-21 18:59N 39°44' W 075°34'0 0.0
2018-Jun-21 18:26N 39°44' W 075°34'0 0.0
2018-Jun-21 18:00N 39°44' W 075°34'0 0.1
2018-Jun-21 17:30N 39°44' W 075°34'1 2.5
2018-Jun-21 17:00N 39°44' W 075°32'2 4.3
2018-Jun-21 16:30N 39°42' W 075°31'3 6.3
2018-Jun-21 16:00N 39°39' W 075°33'3 5.3
2018-Jun-21 15:30N 39°37' W 075°35'3 6.4
2018-Jun-21 15:00N 39°34' W 075°33'4 8.0
2018-Jun-21 14:30N 39°33' W 075°38'4 7.7
2018-Jun-21 14:00N 39°33' W 075°43'4 7.3
2018-Jun-21 13:30N 39°32' W 075°48'1 1.6
2018-Jun-21 12:58N 39°32' W 075°49'0 0.0
2018-Jun-21 12:30N 39°32' W 075°49'0 0.0
2018-Jun-21 12:00N 39°32' W 075°49'0 0.0
2018-Jun-21 11:30N 39°32' W 075°49'0 0.0
2018-Jun-21 11:00N 39°32' W 075°49'0 0.0
2018-Jun-21 10:30N 39°32' W 075°49'0 0.0
2018-Jun-21 10:01N 39°32' W 075°49'0 0.0
2018-Jun-21 09:30N 39°32' W 075°49'0 0.0
2018-Jun-21 09:00N 39°32' W 075°49'0 0.0
2018-Jun-21 08:30N 39°32' W 075°49'0 0.0
2018-Jun-21 08:00N 39°32' W 075°49'0 0.0
2018-Jun-21 07:30N 39°32' W 075°49'0 0.0
2018-Jun-21 07:00N 39°32' W 075°49'0 0.0
2018-Jun-21 06:30N 39°32' W 075°49'0 0.0
2018-Jun-21 06:00N 39°32' W 075°49'0 0.0
2018-Jun-21 05:30N 39°32' W 075°49'0 0.0
2018-Jun-21 05:00N 39°32' W 075°49'0 0.0
2018-Jun-21 04:30N 39°32' W 075°49'0 0.0
2018-Jun-21 04:00N 39°32' W 075°49'0 0.0
2018-Jun-21 03:30N 39°32' W 075°49'0 0.0
2018-Jun-21 03:00N 39°32' W 075°49'0 0.0
2018-Jun-21 02:16N 39°32' W 075°49'0 0.0
2018-Jun-21 02:00N 39°32' W 075°49'0 0.0
2018-Jun-21 01:18N 39°32' W 075°49'0 0.0
2018-Jun-21 01:00N 39°32' W 075°49'0 0.0
2018-Jun-21 00:30N 39°32' W 075°49'0 0.0
2018-Jun-21 00:00N 39°32' W 075°49'0 0.0
2018-Jun-20 23:30N 39°32' W 075°49'0 0.0
2018-Jun-20 23:00N 39°32' W 075°49'0 0.0
2018-Jun-20 22:30N 39°32' W 075°49'0 0.0
2018-Jun-20 22:00N 39°32' W 075°49'0 0.0
2018-Jun-20 21:30N 39°32' W 075°49'0 0.0
2018-Jun-20 21:00N 39°32' W 075°49'0 0.0
2018-Jun-20 20:30N 39°32' W 075°49'0 0.0
2018-Jun-20 20:00N 39°32' W 075°49'0 0.0
2018-Jun-20 19:30N 39°32' W 075°49'0 0.0
2018-Jun-20 19:00N 39°32' W 075°49'0 0.0
2018-Jun-20 18:30N 39°32' W 075°49'0 0.0
2018-Jun-20 18:01N 39°32' W 075°49'0 0.0
2018-Jun-20 17:30N 39°32' W 075°49'0 0.0
2018-Jun-20 17:00N 39°32' W 075°49'0 0.0
2018-Jun-20 16:30N 39°32' W 075°49'0 0.0
2018-Jun-20 16:00N 39°32' W 075°49'0 0.0
2018-Jun-20 15:30N 39°32' W 075°49'0 0.0
2018-Jun-20 15:00N 39°32' W 075°49'0 0.0
2018-Jun-20 14:30N 39°32' W 075°49'0 0.0
2018-Jun-20 14:00N 39°32' W 075°49'0 0.0
2018-Jun-20 13:30N 39°32' W 075°49'0 0.0
2018-Jun-20 13:00N 39°32' W 075°49'0 0.0
2018-Jun-20 12:28N 39°32' W 075°49'0 0.0
2018-Jun-20 11:59N 39°32' W 075°49'0 0.0
2018-Jun-20 11:30N 39°32' W 075°49'0 0.0
2018-Jun-20 11:00N 39°32' W 075°49'0 0.0
2018-Jun-20 10:31N 39°32' W 075°49'0 0.0
2018-Jun-20 10:00N 39°32' W 075°49'0 0.0
2018-Jun-20 09:30N 39°32' W 075°49'0 0.0
2018-Jun-20 09:00N 39°32' W 075°49'0 0.0
2018-Jun-20 08:30N 39°32' W 075°49'0 0.0
2018-Jun-20 08:00N 39°32' W 075°49'0 0.0
2018-Jun-20 07:30N 39°32' W 075°49'0 0.0
2018-Jun-20 07:00N 39°32' W 075°49'0 0.0
2018-Jun-20 06:29N 39°32' W 075°49'0 0.0
2018-Jun-20 06:00N 39°32' W 075°49'0 0.0
2018-Jun-20 05:30N 39°32' W 075°49'0 0.0
2018-Jun-20 05:00N 39°32' W 075°49'0 0.0
2018-Jun-20 04:30N 39°32' W 075°49'0 0.0
2018-Jun-20 04:00N 39°32' W 075°49'0 0.0
2018-Jun-20 03:29N 39°32' W 075°49'0 0.0
2018-Jun-20 03:00N 39°32' W 075°49'0 0.0
2018-Jun-20 02:30N 39°32' W 075°49'0 0.0
2018-Jun-20 01:58N 39°32' W 075°49'0 0.0
2018-Jun-20 01:30N 39°32' W 075°49'0 0.0
2018-Jun-20 00:57N 39°32' W 075°49'0 0.0
2018-Jun-20 00:08N 39°32' W 075°49'0 0.0
2018-Jun-19 23:47N 39°32' W 075°49'0 0.0
2018-Jun-19 23:28N 39°32' W 075°49'0 0.0
2018-Jun-19 23:00N 39°32' W 075°49'0 0.0
2018-Jun-19 22:30N 39°32' W 075°49'0 0.0
2018-Jun-19 22:00N 39°32' W 075°49'0 0.0
2018-Jun-19 21:30N 39°32' W 075°49'0 0.0
2018-Jun-19 21:00N 39°32' W 075°49'0 0.0
2018-Jun-19 20:30N 39°32' W 075°49'0 0.0
2018-Jun-19 20:00N 39°32' W 075°49'0 0.0
2018-Jun-19 19:30N 39°32' W 075°49'0 0.0
2018-Jun-19 19:00N 39°32' W 075°49'  
2018-Jun-13 14:50N 38°01' W 076°21'3 7.7
2018-Jun-13 14:26N 38°03' W 076°24'3 7.2
2018-Jun-13 14:00N 38°06' W 076°26'1 0.1
2018-Jun-12 22:12N 38°07' W 076°27'2 8.2
2018-Jun-12 21:54N 38°05' W 076°25'3 8.0
2018-Jun-12 21:30N 38°02' W 076°22'  

Dump ship's entire track history